Latest Coastal Weather Observations for Edithburgh

IDS60701

Issued at 2:45 am CST Thursday 24 April 2014 (issued every 10 minutes, with the page automatically refreshed every 10 minutes)

About coastal observations | Map of coastal stations | Coastal observations for SA | Marine services | Other Formats
Station Details ID: 022046 Name: EDITHBURGH Lat: -35.11 Lon: 137.74 Height: 6.0 m
Data from the previous 72 hours. | See also: Recent months at Edithburgh
Date/Time
CST
Temp

°C
Wind Pressure Rain
since 9am
mm
Weather Cloud Vis
km
Sea
Height
m
Swell
Dir
 
Speed
knots
Gust
knots
hPa Trend Height
m
Period
s
Dir
24/02:30am 13.5 WNW 8 9 1014.9 - 1.0 - - - - - - -
24/02:00am 13.3 WNW 7 9 1015.1 - 1.0 - - - - - - -
24/01:30am 13.4 WNW 9 10 1015.2 - 1.0 - - - - - - -
24/01:00am 13.5 WNW 6 8 1015.3 - 1.0 - - - - - - -
24/12:30am 14.3 W 8 10 1015.3 - 1.0 - - - - - - -
24/12:00am 15.0 W 8 13 1015.1 - 1.0 Rain - - - - - -
 
Date/Time
CST
Temp

°C
Wind Pressure Rain
since 9am
mm
Weather Cloud Vis
km
Sea
Height
m
Swell
Dir
 
Speed
knots
Gust
knots
hPa Trend Height
m
Period
s
Dir
23/11:30pm 15.6 W 8 12 1015.5 - 0.0 - - - - - - -
23/11:00pm 15.1 W 4 5 1015.5 - 0.0 - - - - - - -
23/10:30pm 15.3 W 5 7 1015.5 - 0.0 - - - - - - -
23/10:00pm 15.6 WNW 8 11 1015.5 - 0.0 - - - - - - -
23/09:30pm 14.3 NW 8 9 1015.3 - 0.0 - - - - - - -
23/09:00pm 14.0 NW 7 9 1015.1 - 0.0 - - - - - - -
23/08:30pm 13.4 NW 5 6 1015.0 - 0.0 - - - - - - -
23/08:00pm 13.1 NW 4 4 1014.9 - 0.0 - - - - - - -
23/07:30pm 13.5 NW 5 5 1014.9 - 0.0 - - - - - - -
23/07:00pm 13.9 NNW 5 6 1014.8 - 0.0 - - - - - - -
23/06:30pm 14.3 NNW 6 7 1014.6 - 0.0 - - - - - - -
23/06:00pm 15.5 NW 7 9 1014.5 - 0.0 - - - - - - -
23/05:30pm 17.3 NW 9 11 1014.4 - 0.0 - - - - - - -
23/05:00pm 18.9 NW 10 13 1014.3 - 0.0 - - - - - - -
23/04:30pm 18.4 NNE 6 9 1014.3 - 0.0 - - - - - - -
23/04:00pm 18.4 NNE 7 9 1014.2 - 0.0 - - - - - - -
23/03:30pm 18.7 NE 7 11 1014.2 - 0.0 - - - - - - -
23/03:00pm 18.7 NE 8 11 1014.2 - 0.0 - - - - - - -
23/02:30pm 18.6 NE 9 11 1014.2 - 0.0 - - - - - - -
23/02:00pm 18.7 ENE 8 9 1014.7 - 0.0 - - - - - - -
23/01:30pm 17.8 E 7 9 1015.0 - 0.0 - - - - - - -
23/01:00pm 18.8 E 8 11 1015.4 - 0.0 - - - - - - -
23/12:30pm 18.3 ENE 7 10 1016.2 - 0.0 - - - - - - -
23/12:00pm 18.3 ENE 7 8 1016.8 - 0.0 - - - - - - -
23/11:30am 18.4 E 7 10 1017.4 - 0.0 - - - - - - -
23/11:00am 18.2 S 3 6 1017.7 - 0.0 - - - - - - -
23/10:30am 19.5 WNW 3 8 1017.9 - 0.0 - - - - - - -
23/10:00am 18.8 W 4 8 1018.1 - 0.0 - - - - - - -
23/09:30am 17.8 NW 4 8 1018.3 - 0.0 - - - - - - -
23/09:00am 16.8 NNW 3 6 1018.3 - 0.0 - - - - - - -
23/08:30am 14.0 NW 4 5 1018.2 - 0.0 - - - - - - -
23/08:00am 11.1 WNW 3 4 1018.1 - 0.0 - - - - - - -
23/07:30am 9.5 NW 5 5 1017.6 - 0.0 - - - - - - -
23/07:00am 7.8 NW 4 5 1017.4 - 0.0 - - - - - - -
23/06:30am 7.4 NW 6 7 1017.2 - 0.0 - - - - - - -
23/06:00am 7.8 NW 5 6 1017.3 - 0.0 - - - - - - -
23/05:30am 7.4 NW 5 5 1017.3 - 0.0 - - - - - - -
23/05:00am 7.7 WNW 4 4 1017.1 - 0.0 - - - - - - -
23/04:30am 8.3 WNW 3 4 1017.2 - 0.0 - - - - - - -
23/04:00am 8.8 WNW 3 4 1017.3 - 0.0 - - - - - - -
23/03:30am 8.6 WNW 4 5 1017.3 - 0.0 - - - - - - -
23/03:00am 8.4 CALM 0 1 1017.5 - 0.0 - - - - - - -
23/02:30am 8.3 CALM 0 0 1017.8 - 0.0 - - - - - - -
23/02:00am 9.5 CALM 0 0 1017.9 - 0.0 - - - - - - -
23/01:30am 9.3 CALM 0 0 1018.1 - 0.0 - - - - - - -
23/01:00am 11.0 CALM 0 0 1018.5 - 0.0 - - - - - - -
23/12:30am 13.2 CALM 0 2 1018.7 - 0.0 - - - - - - -
23/12:00am 13.3 SE 1 3 1018.8 - 0.0 - - - - - - -
 
Date/Time
CST
Temp

°C
Wind Pressure Rain
since 9am
mm
Weather Cloud Vis
km
Sea
Height
m
Swell
Dir
 
Speed
knots
Gust
knots
hPa Trend Height
m
Period
s
Dir
22/11:30pm 14.0 SE 3 3 1018.8 - 0.0 - - - - - - -
22/11:00pm 14.8 SSE 4 6 1019.2 - 0.0 - - - - - - -
22/10:30pm 14.8 SSE 4 6 1019.5 - 0.0 - - - - - - -
22/10:00pm 16.0 SSE 5 7 1019.4 - 0.0 - - - - - - -
22/09:30pm 15.6 SSE 6 9 1019.2 - 0.0 - - - - - - -
22/09:00pm 15.7 SSE 7 9 1019.0 - 0.0 - - - - - - -
22/08:30pm 15.7 SSE 6 7 1019.1 - 0.0 - - - - - - -
22/08:00pm 16.4 S 6 10 1019.3 - 0.0 - - - - - - -
22/07:30pm 16.4 SSE 9 13 1019.0 - 0.0 - - - - - - -
22/07:00pm 16.8 SSE 8 11 1018.7 - 0.0 - - - - - - -
22/06:30pm 16.6 SSE 6 10 1018.5 - 0.0 - - - - - - -
22/06:00pm 16.6 S 6 9 1018.3 - 0.0 - - - - - - -
22/05:30pm 16.6 S 5 6 1018.1 - 0.0 - - - - - - -
22/05:00pm 16.8 S 6 8 1018.0 - 0.0 - - - - - - -
22/04:30pm 17.5 S 6 9 1017.9 - 0.0 - - - - - - -
22/04:00pm 17.7 S 6 7 1017.7 - 0.0 - - - - - - -
22/03:30pm 18.4 S 7 10 1017.6 - 0.0 - - - - - - -
22/03:00pm 18.4 S 7 10 1017.6 - 0.0 - - - - - - -
22/02:30pm 18.9 S 6 10 1017.5 - 0.0 - - - - - - -
22/02:00pm 18.7 S 6 10 1017.5 - 0.0 - - - - - - -
22/01:30pm 19.1 S 7 10 1017.4 - 0.0 - - - - - - -
22/01:00pm 18.3 S 9 12 1017.6 - 0.0 - - - - - - -
22/12:30pm 19.1 SSW 8 13 1017.8 - 0.0 - - - - - - -
22/12:00pm 19.2 SSW 8 11 1018.0 - 0.0 - - - - - - -
22/11:30am 18.7 S 8 12 1018.2 - 0.0 - - - - - - -
22/11:00am 18.2 SSW 9 13 1018.3 - 0.0 - - - - - - -
22/10:30am 18.0 SSW 10 14 1018.2 - 0.0 - - - - - - -
22/10:00am 18.5 SSW 12 16 1018.1 - 0.0 - - - - - - -
22/09:30am 18.2 S 10 14 1018.0 - 0.0 - - - - - - -
22/09:00am 17.7 S 10 13 1017.7 - 0.0 - - - - - - -
22/08:30am 17.0 SSW 11 15 1017.5 - 0.0 - - - - - - -
22/08:00am 16.1 SSW 12 15 1016.9 - 0.0 - - - - - - -
22/07:30am 16.3 SSW 11 15 1016.5 - 0.0 - - - - - - -
22/07:00am 15.7 SSW 12 17 1015.9 - 0.0 - - - - - - -
22/06:30am 15.7 SSW 13 18 1015.5 - 0.0 - - - - - - -
22/06:00am 15.9 SSW 17 20 1015.0 - 0.0 - - - - - - -
22/05:30am 16.1 SSW 15 19 1014.8 - 0.0 - - - - - - -
22/05:00am 16.1 SSW 14 19 1014.4 - 0.0 - - - - - - -
22/04:30am 16.3 SSW 13 18 1014.2 - 0.0 - - - - - - -
22/04:00am 16.4 SSW 12 16 1013.9 - 0.0 - - - - - - -
22/03:30am 16.2 SSW 12 16 1013.5 - 0.0 - - - - - - -
22/03:00am 16.3 SSW 11 14 1013.1 - 0.0 - - - - - - -
22/02:30am 16.7 SW 13 17 1013.7 - 0.0 - - - - - - -
22/02:00am 16.9 S 9 12 1012.9 - 0.0 - - - - - - -
22/01:30am 17.6 S 11 13 1012.4 - 0.0 - - - - - - -
22/01:00am 17.6 S 10 16 1012.6 - 0.0 - - - - - - -
22/12:30am 18.0 S 11 15 1012.0 - 0.0 - - - - - - -
22/12:00am 18.8 SW 7 12 1012.1 - 0.0 - - - - - - -
 
Date/Time
CST
Temp

°C
Wind Pressure Rain
since 9am
mm
Weather Cloud Vis
km
Sea
Height
m
Swell
Dir
 
Speed
knots
Gust
knots
hPa Trend Height
m
Period
s
Dir
21/11:30pm 18.8 SW 13 16 1012.0 - 0.0 - - - - - - -
21/11:00pm 18.8 N 6 12 1010.9 - 0.0 - - - - - - -
21/10:30pm 18.1 N 5 8 1011.3 - 0.0 - - - - - - -
21/10:00pm 18.6 CALM 0 1 1011.4 - 0.0 - - - - - - -
21/09:30pm 19.1 SW 3 5 1011.9 - 0.0 - - - - - - -
21/09:00pm 19.3 WSW 6 8 1012.2 - 0.0 - - - - - - -
21/08:30pm 19.4 SW 6 8 1011.2 - 0.0 - - - - - - -
21/08:00pm 19.6 S 5 8 1010.9 - 0.0 - - - - - - -
21/07:30pm 19.7 W 6 12 1011.2 - 0.0 - - - - - - -
21/07:00pm 19.9 WSW 1 3 1010.8 - 0.0 - - - - - - -
21/06:30pm 20.7 SSW 5 8 1010.8 - 0.0 - - - - - - -
21/06:00pm 22.8 WNW 6 8 1010.3 - 0.0 - - - - - - -
21/05:30pm 24.2 NNW 7 9 1009.6 - 0.0 - - - - - - -
21/05:00pm 25.9 NNW 10 12 1009.5 - 0.0 - - - - - - -
21/04:30pm 26.1 NW 11 15 1009.7 - 0.0 - - - - - - -
21/04:00pm 26.9 NW 14 18 1009.5 - 0.0 - - - - - - -
21/03:30pm 28.2 WNW 16 20 1009.5 - 0.0 - - - - - - -
21/03:12pm 29.1 WNW 18 23 1009.5 - 0.0 - - - - - - -
21/03:00pm 30.4 NW 21 27 1009.1 - 0.0 - - - - - - -
21/02:30pm 30.4 NNW 23 31 1009.0 - 0.0 - - - - - - -
21/02:00pm 30.9 NNW 24 31 1008.9 - 0.0 - - - - - - -
21/01:30pm 29.5 NNW 25 32 1009.6 - 0.0 - - - - - - -
21/01:00pm 29.6 NW 25 34 1009.8 - 0.0 - - - - - - -
21/12:30pm 30.0 NW 28 39 1009.9 - 0.0 - - - - - - -
21/12:20pm 30.3 NNW 30 40 1010.1 - 0.0 - - - - - - -
21/12:00pm 29.1 NNW 29 37 1010.2 - 0.0 - - - - - - -
21/11:31am 27.9 NNW 26 37 1010.7 - 0.0 - - - - - - -
21/11:30am 27.8 NNW 26 35 1010.6 - 0.0 - - - - - - -
21/11:00am 27.9 NNW 27 35 1011.0 - 0.0 - - - - - - -
21/10:30am 27.4 NNW 28 37 1011.0 - 0.0 - - - - - - -
21/10:00am 26.9 NNW 26 34 1011.1 - 0.0 - - - - - - -
21/09:30am 25.3 NNW 26 34 1011.3 - 0.0 - - - - - - -
21/09:14am 24.9 NNW 24 34 1011.3 - 0.0 - - - - - - -
21/09:00am 24.7 NNW 26 34 1011.4 - 0.0 - - - - - - -
21/08:30am 24.0 N 23 31 1011.6 - 0.0 - - - - - - -
21/08:12am 23.5 N 17 25 1011.7 - 0.0 - - - - - - -
21/08:00am 20.8 N 9 14 1011.9 - 0.0 - - - - - - -
21/07:30am 18.4 N 8 12 1011.9 - 0.0 - - - - - - -
21/07:00am 18.2 N 9 14 1011.9 - 0.0 - - - - - - -
21/06:30am 18.1 N 9 14 1012.1 - 0.0 - - - - - - -
21/06:00am 18.3 NNE 9 15 1012.1 - 0.0 - - - - - - -
21/05:30am 18.4 NNE 11 17 1012.2 - 0.0 - - - - - - -
21/05:00am 18.5 NNE 11 18 1012.2 - 0.0 - - - - - - -
21/04:30am 18.3 NNE 11 17 1012.2 - 0.0 - - - - - - -
21/04:00am 18.1 NNE 11 18 1012.2 - 0.0 - - - - - - -
21/03:30am 18.2 NNE 11 16 1012.6 - 0.0 - - - - - - -
21/03:00am 18.2 NNE 11 19 1013.0 - 0.0 - - - - - - -

Other Formats:

Comma delimited format used in spreadsheet applications
http://www.bom.gov.au/fwo/IDS60701/IDS60701.94809.axf

JavaScript Object Notation format (JSON) in row-major order
http://www.bom.gov.au/fwo/IDS60701/IDS60701.94809.json